sensor_id;sensor_type;location;lat;lon;timestamp;temperature;humidity
13642;DHT22;6894;52.196;9.904;2023-06-14T00:01:13;15.10;1.00
13642;DHT22;6894;52.196;9.904;2023-06-14T00:03:40;15.10;1.00
13642;DHT22;6894;52.196;9.904;2023-06-14T00:06:06;15.00;1.00
13642;DHT22;6894;52.196;9.904;2023-06-14T00:08:33;14.90;1.00
13642;DHT22;6894;52.196;9.904;2023-06-14T00:11:01;14.90;1.00
13642;DHT22;6894;52.196;9.904;2023-06-14T00:13:28;14.80;1.00
13642;DHT22;6894;52.196;9.904;2023-06-14T00:15:55;14.90;1.00
13642;DHT22;6894;52.196;9.904;2023-06-14T00:18:21;15.00;1.00
13642;DHT22;6894;52.196;9.904;2023-06-14T00:20:50;14.80;1.00
13642;DHT22;6894;52.196;9.904;2023-06-14T00:23:17;14.90;1.00
13642;DHT22;6894;52.196;9.904;2023-06-14T00:25:44;14.80;1.00
13642;DHT22;6894;52.196;9.904;2023-06-14T00:28:12;14.80;1.00
13642;DHT22;6894;52.196;9.904;2023-06-14T00:30:39;14.70;1.00
13642;DHT22;6894;52.196;9.904;2023-06-14T00:33:06;14.70;1.00
13642;DHT22;6894;52.196;9.904;2023-06-14T00:35:33;14.60;51.20
13642;DHT22;6894;52.196;9.904;2023-06-14T00:37:59;14.60;99.90
13642;DHT22;6894;52.196;9.904;2023-06-14T00:40:27;14.90;99.90
13642;DHT22;6894;52.196;9.904;2023-06-14T00:42:53;14.50;99.90
13642;DHT22;6894;52.196;9.904;2023-06-14T00:45:21;14.50;99.90
13642;DHT22;6894;52.196;9.904;2023-06-14T00:47:50;14.50;99.90
13642;DHT22;6894;52.196;9.904;2023-06-14T00:50:19;14.50;99.90
13642;DHT22;6894;52.196;9.904;2023-06-14T00:52:46;14.40;99.90
13642;DHT22;6894;52.196;9.904;2023-06-14T00:55:13;14.30;99.90
13642;DHT22;6894;52.196;9.904;2023-06-14T00:57:40;14.30;99.90
13642;DHT22;6894;52.196;9.904;2023-06-14T01:00:08;14.30;99.90
13642;DHT22;6894;52.196;9.904;2023-06-14T01:02:37;14.40;99.90
13642;DHT22;6894;52.196;9.904;2023-06-14T01:05:04;14.40;99.90
13642;DHT22;6894;52.196;9.904;2023-06-14T01:07:39;14.40;99.90
13642;DHT22;6894;52.196;9.904;2023-06-14T01:10:17;14.30;99.90
13642;DHT22;6894;52.196;9.904;2023-06-14T01:12:52;14.30;99.90
13642;DHT22;6894;52.196;9.904;2023-06-14T01:15:23;14.20;99.90
13642;DHT22;6894;52.196;9.904;2023-06-14T01:17:51;14.20;99.90
13642;DHT22;6894;52.196;9.904;2023-06-14T01:20:21;14.00;1.00
13642;DHT22;6894;52.196;9.904;2023-06-14T01:22:52;14.00;1.00
13642;DHT22;6894;52.196;9.904;2023-06-14T01:25:19;13.90;1.00
13642;DHT22;6894;52.196;9.904;2023-06-14T01:27:49;13.80;1.00
13642;DHT22;6894;52.196;9.904;2023-06-14T01:30:17;13.70;1.00
13642;DHT22;6894;52.196;9.904;2023-06-14T01:32:44;13.60;99.90
13642;DHT22;6894;52.196;9.904;2023-06-14T01:35:12;13.50;99.90
13642;DHT22;6894;52.196;9.904;2023-06-14T01:37:39;13.50;1.00
13642;DHT22;6894;52.196;9.904;2023-06-14T01:40:10;13.40;1.00
13642;DHT22;6894;52.196;9.904;2023-06-14T01:42:38;13.40;1.00
13642;DHT22;6894;52.196;9.904;2023-06-14T01:45:06;13.40;1.00
13642;DHT22;6894;52.196;9.904;2023-06-14T01:47:34;13.30;1.00
13642;DHT22;6894;52.196;9.904;2023-06-14T01:50:02;13.30;1.00
13642;DHT22;6894;52.196;9.904;2023-06-14T01:52:29;13.20;1.00
13642;DHT22;6894;52.196;9.904;2023-06-14T01:54:56;13.30;99.90
13642;DHT22;6894;52.196;9.904;2023-06-14T01:57:25;13.30;99.90
13642;DHT22;6894;52.196;9.904;2023-06-14T01:59:52;13.40;99.90
13642;DHT22;6894;52.196;9.904;2023-06-14T02:02:19;13.50;99.90
13642;DHT22;6894;52.196;9.904;2023-06-14T02:04:45;13.60;1.00
13642;DHT22;6894;52.196;9.904;2023-06-14T02:07:13;13.60;1.00
13642;DHT22;6894;52.196;9.904;2023-06-14T02:09:40;13.70;1.00
13642;DHT22;6894;52.196;9.904;2023-06-14T02:12:07;13.70;1.00
13642;DHT22;6894;52.196;9.904;2023-06-14T02:14:35;13.60;1.00
13642;DHT22;6894;52.196;9.904;2023-06-14T02:17:04;13.70;1.00
13642;DHT22;6894;52.196;9.904;2023-06-14T02:19:32;13.60;1.00
13642;DHT22;6894;52.196;9.904;2023-06-14T02:21:58;13.60;1.00
13642;DHT22;6894;52.196;9.904;2023-06-14T02:24:25;13.60;1.00
13642;DHT22;6894;52.196;9.904;2023-06-14T02:26:52;13.50;1.00
13642;DHT22;6894;52.196;9.904;2023-06-14T02:29:19;13.40;1.00
13642;DHT22;6894;52.196;9.904;2023-06-14T02:31:47;13.40;1.00
13642;DHT22;6894;52.196;9.904;2023-06-14T02:34:15;13.30;1.00
13642;DHT22;6894;52.196;9.904;2023-06-14T02:36:43;13.30;1.00
13642;DHT22;6894;52.196;9.904;2023-06-14T02:39:13;13.30;1.00
13642;DHT22;6894;52.196;9.904;2023-06-14T02:41:39;13.30;21.00
13642;DHT22;6894;52.196;9.904;2023-06-14T02:44:06;13.20;22.60
13642;DHT22;6894;52.196;9.904;2023-06-14T02:46:33;13.10;99.90
13642;DHT22;6894;52.196;9.904;2023-06-14T02:49:01;13.00;99.90
13642;DHT22;6894;52.196;9.904;2023-06-14T02:51:28;13.00;99.90
13642;DHT22;6894;52.196;9.904;2023-06-14T02:53:54;13.10;1.00
13642;DHT22;6894;52.196;9.904;2023-06-14T02:56:21;13.00;1.00
13642;DHT22;6894;52.196;9.904;2023-06-14T02:58:48;13.00;1.00
13642;DHT22;6894;52.196;9.904;2023-06-14T03:01:16;12.80;1.00
13642;DHT22;6894;52.196;9.904;2023-06-14T03:03:43;12.90;99.90
13642;DHT22;6894;52.196;9.904;2023-06-14T03:06:11;13.00;1.00
13642;DHT22;6894;52.196;9.904;2023-06-14T03:08:39;13.10;1.00
13642;DHT22;6894;52.196;9.904;2023-06-14T03:11:07;13.20;99.90
13642;DHT22;6894;52.196;9.904;2023-06-14T03:13:34;13.20;11.70
13642;DHT22;6894;52.196;9.904;2023-06-14T03:16:01;13.20;1.00
13642;DHT22;6894;52.196;9.904;2023-06-14T03:18:29;13.10;1.00
13642;DHT22;6894;52.196;9.904;2023-06-14T03:20:56;13.20;1.00
13642;DHT22;6894;52.196;9.904;2023-06-14T03:23:25;13.00;1.00
13642;DHT22;6894;52.196;9.904;2023-06-14T03:25:51;13.10;1.00
13642;DHT22;6894;52.196;9.904;2023-06-14T03:28:18;12.90;1.00
13642;DHT22;6894;52.196;9.904;2023-06-14T03:30:45;12.80;99.90
13642;DHT22;6894;52.196;9.904;2023-06-14T03:33:12;12.70;1.00
13642;DHT22;6894;52.196;9.904;2023-06-14T03:35:39;12.80;1.00
13642;DHT22;6894;52.196;9.904;2023-06-14T03:38:05;12.80;98.70
13642;DHT22;6894;52.196;9.904;2023-06-14T03:40:33;12.90;99.90
13642;DHT22;6894;52.196;9.904;2023-06-14T03:43:00;12.80;99.90
13642;DHT22;6894;52.196;9.904;2023-06-14T03:45:27;12.80;26.10
13642;DHT22;6894;52.196;9.904;2023-06-14T03:47:53;12.70;99.90
13642;DHT22;6894;52.196;9.904;2023-06-14T03:50:22;12.70;1.00
13642;DHT22;6894;52.196;9.904;2023-06-14T03:52:49;12.70;32.80
13642;DHT22;6894;52.196;9.904;2023-06-14T03:55:15;12.80;99.90
13642;DHT22;6894;52.196;9.904;2023-06-14T03:57:44;12.80;1.00
13642;DHT22;6894;52.196;9.904;2023-06-14T04:00:11;12.70;1.00
13642;DHT22;6894;52.196;9.904;2023-06-14T04:02:38;12.80;60.80
13642;DHT22;6894;52.196;9.904;2023-06-14T04:05:05;12.80;99.90
13642;DHT22;6894;52.196;9.904;2023-06-14T04:07:34;12.80;1.00
13642;DHT22;6894;52.196;9.904;2023-06-14T04:10:06;12.80;1.00
13642;DHT22;6894;52.196;9.904;2023-06-14T04:12:33;12.80;1.00
13642;DHT22;6894;52.196;9.904;2023-06-14T04:15:01;12.80;1.00
13642;DHT22;6894;52.196;9.904;2023-06-14T04:17:31;13.00;1.00
13642;DHT22;6894;52.196;9.904;2023-06-14T04:19:58;13.20;1.00
13642;DHT22;6894;52.196;9.904;2023-06-14T04:22:25;13.40;99.90
13642;DHT22;6894;52.196;9.904;2023-06-14T04:24:53;13.50;1.00
13642;DHT22;6894;52.196;9.904;2023-06-14T04:27:21;13.60;1.00
13642;DHT22;6894;52.196;9.904;2023-06-14T04:29:51;13.60;99.90
13642;DHT22;6894;52.196;9.904;2023-06-14T04:32:23;13.60;99.90
13642;DHT22;6894;52.196;9.904;2023-06-14T04:34:51;13.50;1.00
13642;DHT22;6894;52.196;9.904;2023-06-14T04:37:19;13.60;1.00
13642;DHT22;6894;52.196;9.904;2023-06-14T04:39:46;13.70;1.00
13642;DHT22;6894;52.196;9.904;2023-06-14T04:42:13;13.90;1.00
13642;DHT22;6894;52.196;9.904;2023-06-14T04:44:41;14.10;99.90
13642;DHT22;6894;52.196;9.904;2023-06-14T04:47:09;14.30;1.00
13642;DHT22;6894;52.196;9.904;2023-06-14T04:49:38;14.40;99.90
13642;DHT22;6894;52.196;9.904;2023-06-14T04:52:06;14.60;99.90
13642;DHT22;6894;52.196;9.904;2023-06-14T04:54:35;14.80;1.00
13642;DHT22;6894;52.196;9.904;2023-06-14T04:57:04;14.90;1.00
13642;DHT22;6894;52.196;9.904;2023-06-14T04:59:31;15.10;99.90
13642;DHT22;6894;52.196;9.904;2023-06-14T05:01:59;15.30;99.90
13642;DHT22;6894;52.196;9.904;2023-06-14T05:04:26;15.40;1.00
13642;DHT22;6894;52.196;9.904;2023-06-14T05:06:54;15.60;1.00
13642;DHT22;6894;52.196;9.904;2023-06-14T05:09:22;15.80;1.00
13642;DHT22;6894;52.196;9.904;2023-06-14T05:11:49;15.80;1.00
13642;DHT22;6894;52.196;9.904;2023-06-14T05:14:16;16.00;1.00
13642;DHT22;6894;52.196;9.904;2023-06-14T05:16:42;16.30;99.90
13642;DHT22;6894;52.196;9.904;2023-06-14T05:19:09;16.20;99.90
13642;DHT22;6894;52.196;9.904;2023-06-14T05:21:36;16.40;99.90
13642;DHT22;6894;52.196;9.904;2023-06-14T05:24:05;16.50;99.90
13642;DHT22;6894;52.196;9.904;2023-06-14T05:26:32;16.60;1.00
13642;DHT22;6894;52.196;9.904;2023-06-14T05:28:59;16.80;1.00
13642;DHT22;6894;52.196;9.904;2023-06-14T05:31:27;17.00;1.00
13642;DHT22;6894;52.196;9.904;2023-06-14T05:33:54;17.10;1.00
13642;DHT22;6894;52.196;9.904;2023-06-14T05:36:21;17.10;1.00
13642;DHT22;6894;52.196;9.904;2023-06-14T05:38:47;17.30;1.00
13642;DHT22;6894;52.196;9.904;2023-06-14T05:41:15;17.40;99.90
13642;DHT22;6894;52.196;9.904;2023-06-14T05:43:42;17.50;99.90
13642;DHT22;6894;52.196;9.904;2023-06-14T05:46:09;17.40;99.90
13642;DHT22;6894;52.196;9.904;2023-06-14T05:48:36;17.50;99.90
13642;DHT22;6894;52.196;9.904;2023-06-14T05:51:02;17.50;99.90
13642;DHT22;6894;52.196;9.904;2023-06-14T05:53:29;17.50;99.90
13642;DHT22;6894;52.196;9.904;2023-06-14T05:55:56;17.60;99.90
13642;DHT22;6894;52.196;9.904;2023-06-14T05:58:24;17.80;99.90
13642;DHT22;6894;52.196;9.904;2023-06-14T06:00:51;17.70;99.90
13642;DHT22;6894;52.196;9.904;2023-06-14T06:03:18;17.90;97.20
13642;DHT22;6894;52.196;9.904;2023-06-14T06:05:46;18.00;99.90
13642;DHT22;6894;52.196;9.904;2023-06-14T06:08:13;18.20;1.00
13642;DHT22;6894;52.196;9.904;2023-06-14T06:10:40;18.40;1.00
13642;DHT22;6894;52.196;9.904;2023-06-14T06:13:06;18.30;1.00
13642;DHT22;6894;52.196;9.904;2023-06-14T06:15:35;18.50;1.00
13642;DHT22;6894;52.196;9.904;2023-06-14T06:18:02;18.60;1.00
13642;DHT22;6894;52.196;9.904;2023-06-14T06:20:29;18.30;1.00
13642;DHT22;6894;52.196;9.904;2023-06-14T06:22:57;18.30;1.00
13642;DHT22;6894;52.196;9.904;2023-06-14T06:25:24;18.30;6.60
13642;DHT22;6894;52.196;9.904;2023-06-14T06:27:51;18.40;1.00
13642;DHT22;6894;52.196;9.904;2023-06-14T06:30:18;18.70;1.00
13642;DHT22;6894;52.196;9.904;2023-06-14T06:32:46;18.80;1.00
13642;DHT22;6894;52.196;9.904;2023-06-14T06:35:14;19.00;1.00
13642;DHT22;6894;52.196;9.904;2023-06-14T06:37:41;19.20;1.00
13642;DHT22;6894;52.196;9.904;2023-06-14T06:40:09;19.40;1.00
13642;DHT22;6894;52.196;9.904;2023-06-14T06:42:36;19.30;1.00
13642;DHT22;6894;52.196;9.904;2023-06-14T06:45:03;19.30;1.00
13642;DHT22;6894;52.196;9.904;2023-06-14T06:47:30;19.40;1.00
13642;DHT22;6894;52.196;9.904;2023-06-14T06:49:58;19.50;1.00
13642;DHT22;6894;52.196;9.904;2023-06-14T06:52:25;19.80;1.00
13642;DHT22;6894;52.196;9.904;2023-06-14T06:54:51;20.00;1.00
13642;DHT22;6894;52.196;9.904;2023-06-14T06:57:20;20.00;1.00
13642;DHT22;6894;52.196;9.904;2023-06-14T06:59:48;20.10;1.00
13642;DHT22;6894;52.196;9.904;2023-06-14T07:02:14;20.10;1.00
13642;DHT22;6894;52.196;9.904;2023-06-14T07:04:41;20.40;1.00
13642;DHT22;6894;52.196;9.904;2023-06-14T07:07:09;20.60;1.00
13642;DHT22;6894;52.196;9.904;2023-06-14T07:09:36;20.60;1.00
13642;DHT22;6894;52.196;9.904;2023-06-14T07:12:03;20.80;1.00
13642;DHT22;6894;52.196;9.904;2023-06-14T07:14:30;20.80;1.00
13642;DHT22;6894;52.196;9.904;2023-06-14T07:16:57;20.80;99.90
13642;DHT22;6894;52.196;9.904;2023-06-14T07:19:24;20.80;99.90
13642;DHT22;6894;52.196;9.904;2023-06-14T07:21:50;20.70;99.90
13642;DHT22;6894;52.196;9.904;2023-06-14T07:24:19;20.70;99.90
13642;DHT22;6894;52.196;9.904;2023-06-14T07:26:46;20.90;99.90
13642;DHT22;6894;52.196;9.904;2023-06-14T07:29:14;20.90;99.90
13642;DHT22;6894;52.196;9.904;2023-06-14T07:31:41;21.00;99.90
13642;DHT22;6894;52.196;9.904;2023-06-14T07:34:08;20.70;99.90
13642;DHT22;6894;52.196;9.904;2023-06-14T07:36:35;21.00;99.90
13642;DHT22;6894;52.196;9.904;2023-06-14T07:39:02;21.30;99.90
13642;DHT22;6894;52.196;9.904;2023-06-14T07:41:32;21.70;99.90
13642;DHT22;6894;52.196;9.904;2023-06-14T07:43:59;21.90;99.90
13642;DHT22;6894;52.196;9.904;2023-06-14T07:46:25;21.80;99.90
13642;DHT22;6894;52.196;9.904;2023-06-14T07:48:52;21.60;99.90
13642;DHT22;6894;52.196;9.904;2023-06-14T07:51:19;21.60;99.90
13642;DHT22;6894;52.196;9.904;2023-06-14T07:53:47;21.60;99.90
13642;DHT22;6894;52.196;9.904;2023-06-14T07:56:14;21.20;99.90
13642;DHT22;6894;52.196;9.904;2023-06-14T07:58:42;21.10;99.90
13642;DHT22;6894;52.196;9.904;2023-06-14T08:01:09;21.30;99.90
13642;DHT22;6894;52.196;9.904;2023-06-14T08:03:36;21.50;99.90
13642;DHT22;6894;52.196;9.904;2023-06-14T08:06:03;21.80;99.90
13642;DHT22;6894;52.196;9.904;2023-06-14T08:08:31;21.90;99.90
13642;DHT22;6894;52.196;9.904;2023-06-14T08:10:58;22.10;99.90
13642;DHT22;6894;52.196;9.904;2023-06-14T08:13:25;22.30;99.90
13642;DHT22;6894;52.196;9.904;2023-06-14T08:15:53;22.50;99.90
13642;DHT22;6894;52.196;9.904;2023-06-14T08:18:20;22.60;99.90
13642;DHT22;6894;52.196;9.904;2023-06-14T08:20:47;22.70;99.90
13642;DHT22;6894;52.196;9.904;2023-06-14T08:23:14;22.70;99.90
13642;DHT22;6894;52.196;9.904;2023-06-14T08:25:44;22.90;99.90
13642;DHT22;6894;52.196;9.904;2023-06-14T08:28:11;22.90;99.90
13642;DHT22;6894;52.196;9.904;2023-06-14T08:30:37;23.00;99.90
13642;DHT22;6894;52.196;9.904;2023-06-14T08:33:05;22.90;99.90
13642;DHT22;6894;52.196;9.904;2023-06-14T08:35:32;23.10;99.90
13642;DHT22;6894;52.196;9.904;2023-06-14T08:38:01;23.30;99.90
13642;DHT22;6894;52.196;9.904;2023-06-14T08:40:30;23.30;99.90
13642;DHT22;6894;52.196;9.904;2023-06-14T08:42:57;23.40;99.90
13642;DHT22;6894;52.196;9.904;2023-06-14T08:45:24;23.40;99.90
13642;DHT22;6894;52.196;9.904;2023-06-14T08:47:51;23.70;99.90
13642;DHT22;6894;52.196;9.904;2023-06-14T08:50:25;23.60;99.90
13642;DHT22;6894;52.196;9.904;2023-06-14T08:52:56;23.50;99.90
13642;DHT22;6894;52.196;9.904;2023-06-14T08:55:27;23.80;99.90
13642;DHT22;6894;52.196;9.904;2023-06-14T08:57:55;24.20;99.90
13642;DHT22;6894;52.196;9.904;2023-06-14T09:00:23;24.00;99.90
13642;DHT22;6894;52.196;9.904;2023-06-14T09:02:51;23.70;99.90
13642;DHT22;6894;52.196;9.904;2023-06-14T09:05:23;23.60;99.90
13642;DHT22;6894;52.196;9.904;2023-06-14T09:07:50;23.30;99.90
13642;DHT22;6894;52.196;9.904;2023-06-14T09:10:18;23.00;99.90
13642;DHT22;6894;52.196;9.904;2023-06-14T09:12:44;23.20;99.90
13642;DHT22;6894;52.196;9.904;2023-06-14T09:15:11;23.70;99.90
13642;DHT22;6894;52.196;9.904;2023-06-14T09:17:40;23.90;99.90
13642;DHT22;6894;52.196;9.904;2023-06-14T09:20:08;24.00;99.90
13642;DHT22;6894;52.196;9.904;2023-06-14T09:22:37;24.10;99.90
13642;DHT22;6894;52.196;9.904;2023-06-14T09:25:05;24.20;99.90
13642;DHT22;6894;52.196;9.904;2023-06-14T09:27:32;24.30;99.90
13642;DHT22;6894;52.196;9.904;2023-06-14T09:29:59;24.50;99.90
13642;DHT22;6894;52.196;9.904;2023-06-14T09:32:26;24.60;99.90
13642;DHT22;6894;52.196;9.904;2023-06-14T09:34:53;24.90;99.90
13642;DHT22;6894;52.196;9.904;2023-06-14T09:37:28;24.80;99.90
13642;DHT22;6894;52.196;9.904;2023-06-14T09:39:57;24.80;99.90
13642;DHT22;6894;52.196;9.904;2023-06-14T09:42:24;24.70;99.90
13642;DHT22;6894;52.196;9.904;2023-06-14T09:44:54;24.90;99.90
13642;DHT22;6894;52.196;9.904;2023-06-14T09:47:22;24.90;99.90
13642;DHT22;6894;52.196;9.904;2023-06-14T09:49:50;24.80;99.90
13642;DHT22;6894;52.196;9.904;2023-06-14T09:52:18;25.00;99.90
13642;DHT22;6894;52.196;9.904;2023-06-14T09:54:46;24.60;99.90
13642;DHT22;6894;52.196;9.904;2023-06-14T09:57:21;24.50;99.90
13642;DHT22;6894;52.196;9.904;2023-06-14T09:59:52;24.50;99.90
13642;DHT22;6894;52.196;9.904;2023-06-14T10:02:24;24.40;99.90
13642;DHT22;6894;52.196;9.904;2023-06-14T10:04:57;24.70;99.90
13642;DHT22;6894;52.196;9.904;2023-06-14T10:07:26;25.00;99.90
13642;DHT22;6894;52.196;9.904;2023-06-14T10:09:56;25.40;99.90
13642;DHT22;6894;52.196;9.904;2023-06-14T10:12:25;25.30;99.90
13642;DHT22;6894;52.196;9.904;2023-06-14T10:14:53;25.40;99.90
13642;DHT22;6894;52.196;9.904;2023-06-14T10:17:25;25.30;99.90
13642;DHT22;6894;52.196;9.904;2023-06-14T10:19:56;25.40;99.90
13642;DHT22;6894;52.196;9.904;2023-06-14T10:22:30;25.70;99.90
13642;DHT22;6894;52.196;9.904;2023-06-14T10:24:59;25.90;99.90
13642;DHT22;6894;52.196;9.904;2023-06-14T10:27:28;25.80;99.90
13642;DHT22;6894;52.196;9.904;2023-06-14T10:30:04;25.90;99.90
13642;DHT22;6894;52.196;9.904;2023-06-14T10:32:31;25.90;99.90
13642;DHT22;6894;52.196;9.904;2023-06-14T10:35:00;26.20;99.90
13642;DHT22;6894;52.196;9.904;2023-06-14T10:37:27;26.50;99.90
13642;DHT22;6894;52.196;9.904;2023-06-14T10:39:54;26.50;99.90
13642;DHT22;6894;52.196;9.904;2023-06-14T10:42:20;26.30;99.90
13642;DHT22;6894;52.196;9.904;2023-06-14T10:44:51;26.60;99.90
13642;DHT22;6894;52.196;9.904;2023-06-14T10:47:24;25.80;99.90
13642;DHT22;6894;52.196;9.904;2023-06-14T10:49:53;25.40;99.90
13642;DHT22;6894;52.196;9.904;2023-06-14T10:52:25;24.80;99.90
13642;DHT22;6894;52.196;9.904;2023-06-14T10:55:11;24.90;99.90
13642;DHT22;6894;52.196;9.904;2023-06-14T10:57:41;25.20;99.90
13642;DHT22;6894;52.196;9.904;2023-06-14T11:00:10;25.50;99.90
13642;DHT22;6894;52.196;9.904;2023-06-14T11:05:55;26.20;99.90
13642;DHT22;6894;52.196;9.904;2023-06-14T11:11:31;26.30;99.90
13642;DHT22;6894;52.196;9.904;2023-06-14T11:14:00;26.20;99.90
13642;DHT22;6894;52.196;9.904;2023-06-14T11:16:28;25.70;99.90
13642;DHT22;6894;52.196;9.904;2023-06-14T11:18:57;25.40;99.90
13642;DHT22;6894;52.196;9.904;2023-06-14T11:21:24;25.40;99.90
13642;DHT22;6894;52.196;9.904;2023-06-14T11:23:56;25.50;99.90
13642;DHT22;6894;52.196;9.904;2023-06-14T11:26:27;25.10;99.90
13642;DHT22;6894;52.196;9.904;2023-06-14T11:28:58;24.80;99.90
13642;DHT22;6894;52.196;9.904;2023-06-14T11:31:25;24.80;99.90
13642;DHT22;6894;52.196;9.904;2023-06-14T11:33:55;25.00;99.90
13642;DHT22;6894;52.196;9.904;2023-06-14T11:36:22;24.60;99.90
13642;DHT22;6894;52.196;9.904;2023-06-14T11:38:49;24.60;99.90
13642;DHT22;6894;52.196;9.904;2023-06-14T11:41:16;24.60;99.90
13642;DHT22;6894;52.196;9.904;2023-06-14T11:43:42;24.50;99.90
13642;DHT22;6894;52.196;9.904;2023-06-14T11:46:13;24.40;99.90
13642;DHT22;6894;52.196;9.904;2023-06-14T11:48:42;24.60;99.90
13642;DHT22;6894;52.196;9.904;2023-06-14T11:51:10;24.70;99.90
13642;DHT22;6894;52.196;9.904;2023-06-14T11:53:37;24.90;99.90
13642;DHT22;6894;52.196;9.904;2023-06-14T11:56:04;25.00;99.90
13642;DHT22;6894;52.196;9.904;2023-06-14T11:58:31;24.90;99.90
13642;DHT22;6894;52.196;9.904;2023-06-14T12:00:58;24.70;99.90
13642;DHT22;6894;52.196;9.904;2023-06-14T12:03:25;24.70;99.90
13642;DHT22;6894;52.196;9.904;2023-06-14T12:06:02;24.50;99.90
13642;DHT22;6894;52.196;9.904;2023-06-14T12:08:34;24.50;99.90
13642;DHT22;6894;52.196;9.904;2023-06-14T12:11:06;24.40;99.90
13642;DHT22;6894;52.196;9.904;2023-06-14T12:13:34;24.30;99.90
13642;DHT22;6894;52.196;9.904;2023-06-14T12:16:02;24.40;99.90
13642;DHT22;6894;52.196;9.904;2023-06-14T12:18:33;24.30;99.90
13642;DHT22;6894;52.196;9.904;2023-06-14T12:21:00;24.30;99.90
13642;DHT22;6894;52.196;9.904;2023-06-14T12:23:42;24.50;99.90
13642;DHT22;6894;52.196;9.904;2023-06-14T12:26:09;24.60;99.90
13642;DHT22;6894;52.196;9.904;2023-06-14T12:28:36;24.60;99.90
13642;DHT22;6894;52.196;9.904;2023-06-14T12:31:03;24.80;99.90
13642;DHT22;6894;52.196;9.904;2023-06-14T12:33:30;25.20;99.90
13642;DHT22;6894;52.196;9.904;2023-06-14T12:35:57;25.70;99.90
13642;DHT22;6894;52.196;9.904;2023-06-14T12:38:24;25.80;99.90
13642;DHT22;6894;52.196;9.904;2023-06-14T12:40:52;26.10;99.90
13642;DHT22;6894;52.196;9.904;2023-06-14T12:43:19;26.40;99.90
13642;DHT22;6894;52.196;9.904;2023-06-14T12:45:46;26.60;99.90
13642;DHT22;6894;52.196;9.904;2023-06-14T12:48:12;26.30;99.90
13642;DHT22;6894;52.196;9.904;2023-06-14T12:50:39;25.80;99.90
13642;DHT22;6894;52.196;9.904;2023-06-14T12:53:06;25.60;99.90
13642;DHT22;6894;52.196;9.904;2023-06-14T12:55:32;25.30;99.90
13642;DHT22;6894;52.196;9.904;2023-06-14T12:58:00;25.30;99.90
13642;DHT22;6894;52.196;9.904;2023-06-14T13:00:27;25.60;99.90
13642;DHT22;6894;52.196;9.904;2023-06-14T13:02:55;26.10;99.90
13642;DHT22;6894;52.196;9.904;2023-06-14T13:05:22;26.60;99.90
13642;DHT22;6894;52.196;9.904;2023-06-14T13:07:51;26.60;99.90
13642;DHT22;6894;52.196;9.904;2023-06-14T13:10:17;26.20;99.90
13642;DHT22;6894;52.196;9.904;2023-06-14T13:12:44;26.50;99.90
13642;DHT22;6894;52.196;9.904;2023-06-14T13:15:13;26.60;99.90
13642;DHT22;6894;52.196;9.904;2023-06-14T13:17:40;27.00;99.90
13642;DHT22;6894;52.196;9.904;2023-06-14T13:20:09;27.20;99.90
13642;DHT22;6894;52.196;9.904;2023-06-14T13:22:36;27.30;99.90
13642;DHT22;6894;52.196;9.904;2023-06-14T13:25:06;27.40;99.90
13642;DHT22;6894;52.196;9.904;2023-06-14T13:27:32;27.50;99.90
13642;DHT22;6894;52.196;9.904;2023-06-14T13:29:59;27.50;99.90
13642;DHT22;6894;52.196;9.904;2023-06-14T13:32:27;27.40;99.90
13642;DHT22;6894;52.196;9.904;2023-06-14T13:34:54;26.80;99.90
13642;DHT22;6894;52.196;9.904;2023-06-14T13:37:21;26.00;99.90
13642;DHT22;6894;52.196;9.904;2023-06-14T13:39:48;25.80;99.90
13642;DHT22;6894;52.196;9.904;2023-06-14T13:42:14;25.80;99.90
13642;DHT22;6894;52.196;9.904;2023-06-14T13:44:41;25.90;99.90
13642;DHT22;6894;52.196;9.904;2023-06-14T13:47:08;26.00;99.90
13642;DHT22;6894;52.196;9.904;2023-06-14T13:49:36;26.00;99.90
13642;DHT22;6894;52.196;9.904;2023-06-14T13:52:03;25.90;99.90
13642;DHT22;6894;52.196;9.904;2023-06-14T13:54:30;25.80;99.90
13642;DHT22;6894;52.196;9.904;2023-06-14T13:56:57;25.70;99.90
13642;DHT22;6894;52.196;9.904;2023-06-14T13:59:24;25.60;99.90
13642;DHT22;6894;52.196;9.904;2023-06-14T14:01:51;25.90;99.90
13642;DHT22;6894;52.196;9.904;2023-06-14T14:04:18;26.20;99.90
13642;DHT22;6894;52.196;9.904;2023-06-14T14:06:46;26.60;99.90
13642;DHT22;6894;52.196;9.904;2023-06-14T14:09:13;26.50;99.90
13642;DHT22;6894;52.196;9.904;2023-06-14T14:11:40;26.50;99.90
13642;DHT22;6894;52.196;9.904;2023-06-14T14:14:07;26.50;99.90
13642;DHT22;6894;52.196;9.904;2023-06-14T14:16:35;26.30;99.90
13642;DHT22;6894;52.196;9.904;2023-06-14T14:19:02;26.10;99.90
13642;DHT22;6894;52.196;9.904;2023-06-14T14:21:29;25.80;99.90
13642;DHT22;6894;52.196;9.904;2023-06-14T14:23:57;25.70;99.90
13642;DHT22;6894;52.196;9.904;2023-06-14T14:26:24;25.70;99.90
13642;DHT22;6894;52.196;9.904;2023-06-14T14:28:51;25.60;99.90
13642;DHT22;6894;52.196;9.904;2023-06-14T14:31:18;25.40;99.90
13642;DHT22;6894;52.196;9.904;2023-06-14T14:33:44;25.50;99.90
13642;DHT22;6894;52.196;9.904;2023-06-14T14:36:11;25.80;99.90
13642;DHT22;6894;52.196;9.904;2023-06-14T14:38:39;25.90;99.90
13642;DHT22;6894;52.196;9.904;2023-06-14T14:41:07;25.90;99.90
13642;DHT22;6894;52.196;9.904;2023-06-14T14:43:33;26.20;99.90
13642;DHT22;6894;52.196;9.904;2023-06-14T14:46:00;26.00;99.90
13642;DHT22;6894;52.196;9.904;2023-06-14T14:48:27;26.00;99.90
13642;DHT22;6894;52.196;9.904;2023-06-14T14:50:53;25.80;99.90
13642;DHT22;6894;52.196;9.904;2023-06-14T14:53:20;25.60;99.90
13642;DHT22;6894;52.196;9.904;2023-06-14T14:55:47;25.60;99.90
13642;DHT22;6894;52.196;9.904;2023-06-14T14:58:15;25.60;99.90
13642;DHT22;6894;52.196;9.904;2023-06-14T15:00:43;25.80;99.90
13642;DHT22;6894;52.196;9.904;2023-06-14T15:03:10;26.00;99.90
13642;DHT22;6894;52.196;9.904;2023-06-14T15:05:37;26.10;99.90
13642;DHT22;6894;52.196;9.904;2023-06-14T15:08:04;26.20;99.90
13642;DHT22;6894;52.196;9.904;2023-06-14T15:10:36;26.30;99.90
13642;DHT22;6894;52.196;9.904;2023-06-14T15:13:03;26.40;99.90
13642;DHT22;6894;52.196;9.904;2023-06-14T15:15:31;26.50;99.90
13642;DHT22;6894;52.196;9.904;2023-06-14T15:17:59;26.50;99.90
13642;DHT22;6894;52.196;9.904;2023-06-14T15:20:25;26.40;99.90
13642;DHT22;6894;52.196;9.904;2023-06-14T15:22:53;26.30;99.90
13642;DHT22;6894;52.196;9.904;2023-06-14T15:25:21;26.10;99.90
13642;DHT22;6894;52.196;9.904;2023-06-14T15:27:48;25.90;99.90
13642;DHT22;6894;52.196;9.904;2023-06-14T15:30:14;25.90;99.90
13642;DHT22;6894;52.196;9.904;2023-06-14T15:32:43;25.70;99.90
13642;DHT22;6894;52.196;9.904;2023-06-14T15:35:09;25.60;99.90
13642;DHT22;6894;52.196;9.904;2023-06-14T15:37:37;25.60;99.90
13642;DHT22;6894;52.196;9.904;2023-06-14T15:40:05;25.40;99.90
13642;DHT22;6894;52.196;9.904;2023-06-14T15:42:32;25.20;99.90
13642;DHT22;6894;52.196;9.904;2023-06-14T15:44:59;25.10;99.90
13642;DHT22;6894;52.196;9.904;2023-06-14T15:47:25;25.00;99.90
13642;DHT22;6894;52.196;9.904;2023-06-14T15:49:53;25.20;99.90
13642;DHT22;6894;52.196;9.904;2023-06-14T15:52:20;25.20;99.90
13642;DHT22;6894;52.196;9.904;2023-06-14T15:54:47;25.30;99.90
13642;DHT22;6894;52.196;9.904;2023-06-14T15:57:13;25.40;99.90
13642;DHT22;6894;52.196;9.904;2023-06-14T15:59:40;25.60;99.90